createdAt,value
2018-07-21T00:02:23.936Z,22.58
2018-07-21T00:04:51.953Z,22.49
2018-07-21T00:07:20.062Z,22.50
2018-07-21T00:09:48.268Z,22.27
2018-07-21T00:12:16.477Z,22.35
2018-07-21T00:14:44.722Z,22.22
2018-07-21T00:17:12.831Z,21.98
2018-07-21T00:19:40.942Z,21.98
2018-07-21T00:22:09.070Z,21.94
2018-07-21T00:24:37.147Z,21.88
2018-07-21T00:27:05.227Z,21.94
2018-07-21T00:29:33.316Z,21.86
2018-07-21T00:32:01.392Z,21.77
2018-07-21T00:34:29.487Z,21.66
2018-07-21T00:36:57.572Z,21.55
2018-07-21T00:39:25.638Z,21.42
2018-07-21T00:41:53.749Z,21.26
2018-07-21T00:44:21.822Z,21.23
2018-07-21T00:46:49.914Z,21.37
2018-07-21T00:49:17.983Z,21.42
2018-07-21T00:51:46.114Z,21.34
2018-07-21T00:54:14.311Z,21.26
2018-07-21T00:56:42.495Z,21.30
2018-07-21T00:59:10.715Z,21.33
2018-07-21T01:01:38.863Z,21.33
2018-07-21T01:04:06.967Z,21.34
2018-07-21T01:06:35.063Z,21.33
2018-07-21T01:09:03.214Z,21.30
2018-07-21T01:11:31.292Z,21.36
2018-07-21T01:13:59.480Z,21.44
2018-07-21T01:16:27.711Z,21.37
2018-07-21T01:18:55.902Z,21.39
2018-07-21T01:21:24.059Z,21.33
2018-07-21T01:23:52.143Z,21.34
2018-07-21T01:26:20.224Z,21.29
2018-07-21T01:28:48.338Z,21.31
2018-07-21T01:31:16.419Z,21.30
2018-07-21T01:33:44.525Z,21.39
2018-07-21T01:36:12.802Z,21.29
2018-07-21T01:38:40.875Z,21.20
2018-07-21T01:41:08.950Z,21.05
2018-07-21T01:43:37.019Z,20.97
2018-07-21T01:46:05.248Z,21.00
2018-07-21T01:48:33.370Z,21.07
2018-07-21T01:51:01.474Z,21.13
2018-07-21T01:53:29.610Z,21.19
2018-07-21T01:55:57.684Z,21.21
2018-07-21T01:58:25.864Z,21.15
2018-07-21T02:00:53.934Z,21.00
2018-07-21T02:03:22.012Z,20.85
2018-07-21T02:05:50.130Z,20.86
2018-07-21T02:08:18.204Z,20.99
2018-07-21T02:10:46.278Z,21.06
2018-07-21T02:13:14.346Z,21.11
2018-07-21T02:15:42.435Z,21.10
2018-07-21T02:18:10.507Z,21.09
2018-07-21T02:20:38.583Z,21.03
2018-07-21T02:23:06.676Z,21.06
2018-07-21T02:25:34.743Z,20.99
2018-07-21T02:28:02.808Z,21.00
2018-07-21T02:30:30.898Z,21.13
2018-07-21T02:32:58.952Z,21.20
2018-07-21T02:35:27.111Z,21.20
2018-07-21T02:37:55.195Z,21.15
2018-07-21T02:40:23.396Z,21.09
2018-07-21T02:42:51.469Z,21.20
2018-07-21T02:45:19.542Z,21.27
2018-07-21T02:47:47.616Z,21.30
2018-07-21T02:50:15.693Z,21.39
2018-07-21T02:52:43.773Z,21.52
2018-07-21T02:55:11.844Z,21.44
2018-07-21T02:57:39.908Z,21.42
2018-07-21T03:00:07.982Z,21.43
2018-07-21T03:02:36.130Z,21.63
2018-07-21T03:05:04.159Z,21.51
2018-07-21T03:07:32.240Z,21.51
2018-07-21T03:10:00.358Z,21.49
2018-07-21T03:12:28.422Z,21.49
2018-07-21T03:14:56.584Z,21.43
2018-07-21T03:17:24.653Z,21.36
2018-07-21T03:19:52.722Z,21.38
2018-07-21T03:22:20.795Z,21.20
2018-07-21T03:24:48.914Z,21.22
2018-07-21T03:27:16.985Z,21.14
2018-07-21T03:29:45.056Z,21.23
2018-07-21T03:32:13.148Z,21.21
2018-07-21T03:34:41.228Z,21.25
2018-07-21T03:37:09.307Z,21.32
2018-07-21T03:39:37.367Z,21.32
2018-07-21T03:42:05.446Z,21.25
2018-07-21T03:44:33.503Z,21.28
2018-07-21T03:47:01.564Z,21.03
2018-07-21T03:49:29.610Z,21.02
2018-07-21T03:51:57.688Z,21.09
2018-07-21T03:54:25.753Z,21.18
2018-07-21T03:56:53.825Z,21.18
2018-07-21T03:59:21.988Z,21.22
2018-07-21T04:01:50.148Z,21.29
2018-07-21T04:04:18.317Z,21.31
2018-07-21T04:06:46.432Z,21.28
2018-07-21T04:09:14.526Z,21.39
2018-07-21T04:11:42.641Z,21.28
2018-07-21T04:14:10.839Z,21.26
2018-07-21T04:16:38.931Z,21.32
2018-07-21T04:19:07.576Z,21.38
2018-07-21T04:21:35.659Z,21.40
2018-07-21T04:24:03.839Z,21.41
2018-07-21T04:26:31.868Z,21.39
2018-07-21T04:28:59.963Z,21.40
2018-07-21T04:31:28.045Z,21.46
2018-07-21T04:33:56.428Z,21.42
2018-07-21T04:36:24.809Z,21.45
2018-07-21T04:38:52.879Z,21.48
2018-07-21T04:41:20.928Z,21.66
2018-07-21T04:43:49.130Z,21.55
2018-07-21T04:46:17.298Z,21.53
2018-07-21T04:48:45.494Z,21.78
2018-07-21T04:51:13.699Z,21.82
2018-07-21T04:53:41.897Z,21.87
2018-07-21T04:56:10.223Z,22.06
2018-07-21T04:58:38.496Z,22.19
2018-07-21T05:01:06.808Z,22.28
2018-07-21T05:03:34.952Z,22.35
2018-07-21T05:06:03.163Z,22.41
2018-07-21T05:08:31.379Z,22.49
2018-07-21T05:10:59.533Z,22.53
2018-07-21T05:13:27.867Z,22.61
2018-07-21T05:15:56.055Z,22.44
2018-07-21T05:18:24.244Z,22.60
2018-07-21T05:20:52.499Z,22.52
2018-07-21T05:23:20.722Z,22.45
2018-07-21T05:25:48.904Z,22.49
2018-07-21T05:28:17.151Z,22.44
2018-07-21T05:30:45.347Z,22.45
2018-07-21T05:33:13.544Z,22.53
2018-07-21T05:35:41.723Z,22.45
2018-07-21T05:38:09.976Z,22.52
2018-07-21T05:40:38.156Z,22.53
2018-07-21T05:43:06.372Z,22.38
2018-07-21T05:45:34.607Z,22.41
2018-07-21T05:48:02.903Z,22.48
2018-07-21T05:50:31.270Z,22.45
2018-07-21T05:52:59.507Z,22.49
2018-07-21T05:55:27.688Z,22.48
2018-07-21T05:57:55.879Z,22.62
2018-07-21T06:00:23.975Z,22.82
2018-07-21T06:02:52.216Z,22.91
2018-07-21T06:05:20.136Z,22.98
2018-07-21T06:07:48.230Z,22.94
2018-07-21T06:10:16.304Z,22.99
2018-07-21T06:12:44.555Z,23.07
2018-07-21T06:15:12.666Z,23.18
2018-07-21T06:17:40.752Z,23.06
2018-07-21T06:20:08.843Z,23.12
2018-07-21T06:22:36.924Z,23.18
2018-07-21T06:25:05.158Z,23.39
2018-07-21T06:27:33.199Z,23.41
2018-07-21T06:30:01.500Z,23.46
2018-07-21T06:32:29.627Z,23.55
2018-07-21T06:34:57.740Z,23.48
2018-07-21T06:37:25.883Z,23.62
2018-07-21T06:39:53.995Z,23.66
2018-07-21T06:42:22.089Z,23.65
2018-07-21T06:44:50.180Z,23.93
2018-07-21T06:47:18.268Z,24.04
2018-07-21T06:49:46.349Z,23.98
2018-07-21T06:52:14.487Z,24.02
2018-07-21T06:54:42.628Z,23.96
2018-07-21T06:57:10.739Z,24.08
2018-07-21T06:59:38.824Z,24.27
2018-07-21T07:02:06.914Z,24.42
2018-07-21T07:04:35.059Z,24.60
2018-07-21T07:07:03.155Z,24.78
2018-07-21T07:09:31.243Z,24.88
2018-07-21T07:11:59.325Z,24.73
2018-07-21T07:14:28.764Z,25.02
2018-07-21T07:16:57.522Z,25.08
2018-07-21T07:19:25.609Z,25.05
2018-07-21T07:21:53.688Z,25.15
2018-07-21T07:24:21.825Z,25.19
2018-07-21T07:26:50.033Z,25.13
2018-07-21T07:29:18.103Z,24.88
2018-07-21T07:31:46.175Z,25.05
2018-07-21T07:34:14.269Z,24.85
2018-07-21T07:36:42.335Z,25.01
2018-07-21T07:39:11.499Z,25.10
2018-07-21T07:41:39.827Z,25.18
2018-07-21T07:44:08.126Z,25.36
2018-07-21T07:46:36.287Z,25.28
2018-07-21T07:49:04.437Z,25.38
2018-07-21T07:51:32.548Z,25.54
2018-07-21T07:54:00.732Z,25.71
2018-07-21T07:56:28.939Z,25.85
2018-07-21T07:58:57.648Z,25.85
2018-07-21T08:01:26.079Z,25.80
2018-07-21T08:03:54.427Z,25.81
2018-07-21T08:06:23.734Z,25.90
2018-07-21T08:08:52.099Z,25.77
2018-07-21T08:11:20.604Z,25.97
2018-07-21T08:13:53.363Z,25.96
2018-07-21T08:16:21.702Z,25.42
2018-07-21T08:18:49.927Z,25.21
2018-07-21T08:21:18.792Z,25.08
2018-07-21T08:23:47.214Z,25.05
2018-07-21T08:26:15.626Z,24.88
2018-07-21T08:28:43.991Z,25.06
2018-07-21T08:31:12.560Z,25.04
2018-07-21T08:33:40.869Z,24.69
2018-07-21T08:36:09.353Z,24.62
2018-07-21T08:38:37.570Z,24.48
2018-07-21T08:41:05.883Z,24.20
2018-07-21T08:43:34.052Z,24.58
2018-07-21T08:46:02.304Z,24.54
2018-07-21T08:48:30.666Z,24.62
2018-07-21T08:50:58.872Z,24.29
2018-07-21T08:53:27.175Z,24.50
2018-07-21T08:55:55.476Z,24.60
2018-07-21T08:58:23.683Z,24.39
2018-07-21T09:00:51.896Z,24.24
2018-07-21T09:03:23.411Z,24.26
2018-07-21T09:05:54.480Z,24.43
2018-07-21T09:08:22.676Z,24.28
2018-07-21T09:10:50.879Z,23.98
2018-07-21T09:13:19.138Z,24.07
2018-07-21T09:15:47.354Z,24.00
2018-07-21T09:18:15.561Z,23.68
2018-07-21T09:20:43.772Z,23.75
2018-07-21T09:23:12.027Z,23.68
2018-07-21T09:25:40.231Z,23.66
2018-07-21T09:28:08.463Z,23.49
2018-07-21T09:30:36.781Z,23.21
2018-07-21T09:33:05.063Z,23.16
2018-07-21T09:35:33.308Z,23.24
2018-07-21T09:38:02.545Z,23.35
2018-07-21T09:40:30.817Z,23.32
2018-07-21T09:42:59.065Z,23.18
2018-07-21T09:45:27.296Z,22.96
2018-07-21T09:47:55.505Z,22.91
2018-07-21T09:50:23.736Z,23.13
2018-07-21T09:52:52.792Z,23.17
2018-07-21T09:55:20.991Z,23.18
2018-07-21T09:57:49.248Z,23.23
2018-07-21T10:00:22.687Z,23.30
2018-07-21T10:02:50.873Z,23.07
2018-07-21T10:05:19.083Z,23.17
2018-07-21T10:07:47.320Z,23.17
2018-07-21T10:10:15.517Z,23.13
2018-07-21T10:12:43.696Z,22.98
2018-07-21T10:15:11.892Z,22.98
2018-07-21T10:17:40.096Z,22.92
2018-07-21T10:20:08.287Z,23.06
2018-07-21T10:22:36.512Z,22.87
2018-07-21T10:25:09.927Z,22.49
2018-07-21T10:27:43.591Z,22.36
2018-07-21T10:30:12.838Z,22.19
2018-07-21T10:32:41.055Z,22.40
2018-07-21T10:35:21.811Z,22.39
2018-07-21T10:37:52.488Z,22.39
2018-07-21T10:40:20.845Z,22.24
2018-07-21T10:42:49.961Z,22.30
2018-07-21T10:45:18.207Z,22.43
2018-07-21T10:47:46.447Z,22.23
2018-07-21T10:50:14.635Z,22.18
2018-07-21T10:52:42.832Z,22.26
2018-07-21T10:55:11.578Z,21.87
2018-07-21T10:57:39.855Z,21.89
2018-07-21T11:00:08.140Z,22.02
2018-07-21T11:02:36.333Z,22.12
2018-07-21T11:05:04.577Z,22.13
2018-07-21T11:07:32.793Z,21.91
2018-07-21T11:10:00.985Z,22.29
2018-07-21T11:12:29.472Z,22.56
2018-07-21T11:14:58.148Z,22.39
2018-07-21T11:17:26.446Z,22.55
2018-07-21T11:19:54.623Z,22.63
2018-07-21T11:22:22.719Z,22.59
2018-07-21T11:24:50.805Z,22.50
2018-07-21T11:27:18.940Z,22.76
2018-07-21T11:29:48.377Z,22.61
2018-07-21T11:32:17.757Z,22.52
2018-07-21T11:34:45.828Z,22.67
2018-07-21T11:37:13.956Z,22.87
2018-07-21T11:39:42.184Z,22.77
2018-07-21T11:42:10.311Z,22.85
2018-07-21T11:44:38.493Z,23.05
2018-07-21T11:47:06.548Z,22.79
2018-07-21T11:49:34.723Z,22.93
2018-07-21T11:52:02.877Z,23.12
2018-07-21T11:54:30.943Z,23.12
2018-07-21T11:57:01.155Z,22.55
2018-07-21T11:59:29.831Z,22.44
2018-07-21T12:01:58.335Z,22.48
2018-07-21T12:04:27.041Z,22.60
2018-07-21T12:06:56.145Z,22.45
2018-07-21T12:09:24.418Z,22.30
2018-07-21T12:11:52.576Z,22.75
2018-07-21T12:14:20.677Z,22.50
2018-07-21T12:16:48.848Z,22.55
2018-07-21T12:19:16.967Z,22.56
2018-07-21T12:21:45.452Z,22.99
2018-07-21T12:24:16.727Z,23.22
2018-07-21T12:26:44.850Z,23.16
2018-07-21T12:29:12.937Z,23.28
2018-07-21T12:31:41.612Z,23.77
2018-07-21T12:34:09.843Z,23.74
2018-07-21T12:36:37.980Z,23.69
2018-07-21T12:39:08.028Z,24.05
2018-07-21T12:41:36.315Z,24.30
2018-07-21T12:44:04.511Z,24.42
2018-07-21T12:46:32.729Z,24.47
2018-07-21T12:49:03.106Z,24.41
2018-07-21T12:51:31.299Z,24.44
2018-07-21T12:53:59.460Z,24.13
2018-07-21T12:56:27.540Z,24.25
2018-07-21T12:58:55.620Z,24.13
2018-07-21T13:01:23.732Z,24.48
2018-07-21T13:03:51.813Z,24.38
2018-07-21T13:06:19.930Z,24.36
2018-07-21T13:08:49.002Z,24.41
2018-07-21T13:11:17.645Z,24.12
2018-07-21T13:13:46.592Z,24.02
2018-07-21T13:16:14.651Z,23.83
2018-07-21T13:18:45.179Z,24.01
2018-07-21T13:21:14.143Z,24.12
2018-07-21T13:23:43.259Z,24.05
2018-07-21T13:26:11.410Z,23.96
2018-07-21T13:28:39.531Z,23.93
2018-07-21T13:31:09.658Z,23.75
2018-07-21T13:33:37.740Z,23.61
2018-07-21T13:36:05.916Z,23.72
2018-07-21T13:38:34.252Z,23.64
2018-07-21T13:41:02.344Z,23.17
2018-07-21T13:43:30.454Z,23.00
2018-07-21T13:45:59.139Z,23.24
2018-07-21T13:48:27.281Z,23.20
2018-07-21T13:50:55.411Z,22.97
2018-07-21T13:53:23.540Z,23.43
2018-07-21T13:55:51.683Z,23.74
2018-07-21T13:58:19.912Z,23.85
2018-07-21T14:00:48.012Z,23.64
2018-07-21T14:03:17.166Z,23.25
2018-07-21T14:05:45.279Z,23.26
2018-07-21T14:08:13.359Z,23.25
2018-07-21T14:10:41.485Z,23.17
2018-07-21T14:13:09.596Z,22.96
2018-07-21T14:15:38.245Z,23.23
2018-07-21T14:18:08.327Z,23.50
2018-07-21T14:20:42.735Z,23.57
2018-07-21T14:23:22.825Z,23.96
2018-07-21T14:25:50.918Z,24.05
2018-07-21T14:28:19.009Z,23.94
2018-07-21T14:30:47.063Z,24.24
2018-07-21T14:33:15.152Z,24.17
2018-07-21T14:35:43.263Z,24.41
2018-07-21T14:38:11.322Z,24.42
2018-07-21T14:40:39.431Z,24.60
2018-07-21T14:43:07.604Z,24.51
2018-07-21T14:45:35.716Z,24.49
2018-07-21T14:48:03.825Z,24.46
2018-07-21T14:50:31.937Z,24.78
2018-07-21T14:53:00.017Z,24.60
2018-07-21T14:55:28.124Z,24.71
2018-07-21T14:57:56.272Z,24.74
2018-07-21T15:00:24.411Z,24.75
2018-07-21T15:02:52.486Z,24.69
2018-07-21T15:05:20.571Z,24.37
2018-07-21T15:07:48.651Z,24.30
2018-07-21T15:10:16.711Z,24.26
2018-07-21T15:12:44.831Z,24.40
2018-07-21T15:15:12.903Z,24.25
2018-07-21T15:17:41.047Z,24.22
2018-07-21T15:20:09.131Z,23.92
2018-07-21T15:22:37.271Z,23.78
2018-07-21T15:25:05.743Z,24.08
2018-07-21T15:27:33.865Z,24.10
2018-07-21T15:30:01.980Z,24.14
2018-07-21T15:32:30.070Z,24.30
2018-07-21T15:34:58.411Z,24.30
2018-07-21T15:37:26.522Z,23.86
2018-07-21T15:39:54.641Z,23.89
2018-07-21T15:42:22.706Z,23.64
2018-07-21T15:44:50.800Z,23.82
2018-07-21T15:47:18.985Z,23.86
2018-07-21T15:49:47.207Z,23.48
2018-07-21T15:52:15.394Z,23.62
2018-07-21T15:54:43.686Z,23.56
2018-07-21T15:57:11.831Z,23.67
2018-07-21T15:59:40.005Z,23.73
2018-07-21T16:02:08.137Z,23.88
2018-07-21T16:04:36.246Z,23.84
2018-07-21T16:07:04.399Z,23.91
2018-07-21T16:09:32.504Z,23.88
2018-07-21T16:12:00.695Z,23.88
2018-07-21T16:14:28.761Z,23.91
2018-07-21T16:16:56.843Z,23.75
2018-07-21T16:19:24.931Z,23.79
2018-07-21T16:21:53.749Z,23.63
2018-07-21T16:24:21.845Z,23.86
2018-07-21T16:26:49.994Z,24.01
2018-07-21T16:29:18.058Z,24.20
2018-07-21T16:31:46.296Z,24.18
2018-07-21T16:34:14.511Z,24.20
2018-07-21T16:36:42.849Z,24.35
2018-07-21T16:39:11.915Z,24.22
2018-07-21T16:41:40.145Z,24.49
2018-07-21T16:44:08.247Z,24.62
2018-07-21T16:46:36.904Z,24.71
2018-07-21T16:49:05.185Z,24.61
2018-07-21T16:51:33.255Z,24.74
2018-07-21T16:54:01.407Z,24.52
2018-07-21T16:56:29.477Z,24.38
2018-07-21T16:58:57.798Z,24.49
2018-07-21T17:01:25.868Z,24.65
2018-07-21T17:03:54.004Z,24.77
2018-07-21T17:06:22.103Z,24.87
2018-07-21T17:08:50.352Z,24.72
2018-07-21T17:11:18.439Z,24.67
2018-07-21T17:13:46.731Z,24.68
2018-07-21T17:16:14.855Z,24.67
2018-07-21T17:18:42.942Z,24.47
2018-07-21T17:21:11.407Z,24.51
2018-07-21T17:23:39.516Z,24.49
2018-07-21T17:26:07.598Z,24.45
2018-07-21T17:28:35.683Z,24.43
2018-07-21T17:31:03.939Z,24.49
2018-07-21T17:33:32.039Z,24.52
2018-07-21T17:36:00.129Z,24.55
2018-07-21T17:38:28.248Z,24.64
2018-07-21T17:40:56.329Z,24.53
2018-07-21T17:43:24.450Z,24.29
2018-07-21T17:45:52.724Z,24.37
2018-07-21T17:48:20.946Z,24.36
2018-07-21T17:50:49.027Z,24.12
2018-07-21T17:53:17.167Z,24.21
2018-07-21T17:55:45.360Z,24.11
2018-07-21T17:58:13.660Z,24.17
2018-07-21T18:00:41.774Z,24.18
2018-07-21T18:03:10.060Z,24.30
2018-07-21T18:05:38.311Z,24.35
2018-07-21T18:08:06.744Z,24.28
2018-07-21T18:10:34.925Z,24.35
2018-07-21T18:13:03.082Z,24.16
2018-07-21T18:15:31.447Z,23.98
2018-07-21T18:17:59.654Z,23.91
2018-07-21T18:20:27.850Z,23.90
2018-07-21T18:22:56.084Z,23.97
2018-07-21T18:25:24.470Z,23.75
2018-07-21T18:27:52.625Z,23.60
2018-07-21T18:30:20.785Z,23.72
2018-07-21T18:32:49.048Z,23.72
2018-07-21T18:35:17.301Z,23.67
2018-07-21T18:37:45.606Z,23.68
2018-07-21T18:40:13.915Z,23.85
2018-07-21T18:42:41.960Z,23.89
2018-07-21T18:45:10.258Z,24.04
2018-07-21T18:47:38.458Z,24.03
2018-07-21T18:50:07.523Z,23.85
2018-07-21T18:52:35.754Z,23.91
2018-07-21T18:55:04.103Z,23.91
2018-07-21T18:57:32.318Z,23.94
2018-07-21T19:00:00.473Z,23.85
2018-07-21T19:02:28.662Z,23.81
2018-07-21T19:04:56.962Z,23.86
2018-07-21T19:07:31.496Z,23.49
2018-07-21T19:10:00.785Z,23.59
2018-07-21T19:12:34.179Z,23.64
2018-07-21T19:15:02.352Z,23.71
2018-07-21T19:17:30.659Z,23.66
2018-07-21T19:20:04.067Z,23.82
2018-07-21T19:22:32.292Z,23.72
2018-07-21T19:25:04.685Z,23.62
2018-07-21T19:27:33.359Z,23.64
2018-07-21T19:30:02.220Z,23.48
2018-07-21T19:32:35.903Z,23.36
2018-07-21T19:35:04.239Z,23.47
2018-07-21T19:37:37.782Z,23.56
2018-07-21T19:40:07.755Z,23.44
2018-07-21T19:42:35.955Z,23.29
2018-07-21T19:45:04.174Z,23.30
2018-07-21T19:47:32.509Z,23.25
2018-07-21T19:50:00.777Z,23.35
2018-07-21T19:52:29.051Z,23.31
2018-07-21T19:54:57.317Z,23.09
2018-07-21T19:57:25.824Z,22.98
2018-07-21T19:59:54.073Z,22.86
2018-07-21T20:02:45.556Z,22.84
2018-07-21T20:05:13.901Z,22.78
2018-07-21T20:07:43.878Z,22.61
2018-07-21T20:10:12.101Z,22.45
2018-07-21T20:12:53.308Z,22.59
2018-07-21T20:15:21.492Z,22.58
2018-07-21T20:17:49.650Z,22.56
2018-07-21T20:20:18.277Z,22.60
2018-07-21T20:22:46.418Z,22.45
2018-07-21T20:25:14.828Z,22.45
2018-07-21T20:27:43.042Z,22.45
2018-07-21T20:30:11.271Z,22.41
2018-07-21T20:33:00.401Z,22.50
2018-07-21T20:35:28.744Z,22.42
2018-07-21T20:37:57.235Z,22.30
2018-07-21T20:40:25.747Z,22.17
2018-07-21T20:42:53.913Z,22.15
2018-07-21T20:45:32.315Z,22.13
2018-07-21T20:48:00.614Z,22.07
2018-07-21T20:50:28.772Z,22.21
2018-07-21T20:52:57.206Z,22.38
2018-07-21T20:55:26.456Z,22.20
2018-07-21T20:58:19.253Z,22.07
2018-07-21T21:00:47.426Z,22.13
2018-07-21T21:03:18.490Z,22.10
2018-07-21T21:05:49.402Z,22.11
2018-07-21T21:08:17.692Z,22.04
2018-07-21T21:10:45.827Z,21.95
2018-07-21T21:13:14.267Z,22.20
2018-07-21T21:15:42.429Z,22.23
2018-07-21T21:18:10.743Z,22.10
2018-07-21T21:20:38.939Z,22.02
2018-07-21T21:23:07.232Z,21.86
2018-07-21T21:25:35.377Z,21.69
2018-07-21T21:28:03.713Z,21.67
2018-07-21T21:30:31.927Z,21.66
2018-07-21T21:33:00.105Z,21.65
2018-07-21T21:35:29.554Z,21.62
2018-07-21T21:37:57.841Z,21.75
2018-07-21T21:40:53.692Z,21.65
2018-07-21T21:45:37.032Z,21.49
2018-07-21T21:48:05.324Z,21.21
2018-07-21T21:50:33.561Z,21.30
2018-07-21T21:53:01.832Z,21.17
2018-07-21T21:55:30.605Z,21.26
2018-07-21T21:57:58.828Z,21.23
2018-07-21T22:00:33.501Z,21.11
2018-07-21T22:03:02.902Z,21.13
2018-07-21T22:05:31.072Z,21.18
2018-07-21T22:07:59.267Z,21.23
2018-07-21T22:10:27.456Z,21.37
2018-07-21T22:12:56.506Z,21.43
2018-07-21T22:15:25.365Z,21.56
2018-07-21T22:17:53.554Z,21.41
2018-07-21T22:20:21.712Z,21.27
2018-07-21T22:22:49.886Z,21.26
2018-07-21T22:25:18.219Z,21.07
2018-07-21T22:27:46.387Z,20.97
2018-07-21T22:30:17.978Z,20.82
2018-07-21T22:32:46.166Z,20.66
2018-07-21T22:35:14.492Z,20.65
2018-07-21T22:37:42.804Z,20.54
2018-07-21T22:40:11.481Z,20.49
2018-07-21T22:42:43.834Z,20.31
2018-07-21T22:45:12.603Z,20.30
2018-07-21T22:47:41.300Z,20.38
2018-07-21T22:50:09.698Z,20.27
2018-07-21T22:52:38.157Z,20.28
2018-07-21T22:55:10.026Z,20.33
2018-07-21T22:57:38.235Z,20.04
2018-07-21T23:00:09.552Z,19.94
2018-07-21T23:02:38.081Z,20.16
2018-07-21T23:05:06.448Z,20.23
2018-07-21T23:07:34.882Z,20.21
2018-07-21T23:10:03.062Z,20.06
2018-07-21T23:12:31.561Z,20.03
2018-07-21T23:14:59.721Z,19.98
2018-07-21T23:17:27.842Z,19.78
2018-07-21T23:19:56.526Z,19.80
2018-07-21T23:22:24.631Z,19.86
2018-07-21T23:24:52.723Z,19.59
2018-07-21T23:27:20.866Z,19.54
2018-07-21T23:29:48.935Z,19.59
2018-07-21T23:32:17.097Z,19.59
2018-07-21T23:34:45.204Z,19.44
2018-07-21T23:37:13.639Z,19.49
2018-07-21T23:39:41.826Z,19.44
2018-07-21T23:42:16.091Z,19.43
2018-07-21T23:44:44.262Z,19.34
2018-07-21T23:47:12.364Z,19.19
2018-07-21T23:49:40.446Z,19.46
2018-07-21T23:52:08.542Z,19.38
2018-07-21T23:54:36.629Z,19.45
2018-07-21T23:57:05.056Z,19.46
2018-07-21T23:59:33.160Z,19.34
